TUI2DJ EDDS-LEPA
Flight info
| Callsign | TUI2DJ |
|---|---|
| Flight time | N/A |
| Altitude | 37000 |
| Route | ROTWE5B/25 ROTWE Y126 TUBLO N850 NATOR DCT LUTIX DCT BENOT DCT NEMOS DCT GEVEA DCT INCUS DCT BALSI DCT RETNO DCT TUPOX DCT MTG DCT DIVKO DCT VATIR DCT PIVUS DCT BODEQ DCT VERSO DCT LUNIK |
| Aircraft | B738/M-SDE2E3FGHIRWXY/LB1 |
Departure
| Time | 2026-05-05 16:35 |
|---|---|
| Airport | Stuttgart Airport (EDDS) |
Arrival
| Time | N/A |
|---|---|
| Airport | Palma de Mallorca Airport (LEPA) |
| Time | Latitude | Longitude | Altitude | Speed | Heading |
|---|---|---|---|---|---|
| 2026-05-05 15:55 | 48.69061 | 9.19970 | 1294 ft | 0 kts | 343° |
| 2026-05-05 16:19 | 48.69052 | 9.19974 | 1294 ft | 3 kts | 342° |
| 2026-05-05 16:20 | 48.69015 | 9.19996 | 1293 ft | 3 kts | 332° |
| 2026-05-05 16:20 | 48.68984 | 9.20032 | 1293 ft | 3 kts | 288° |
| 2026-05-05 16:21 | 48.68983 | 9.20051 | 1292 ft | 0 kts | 227° |
| 2026-05-05 16:23 | 48.68982 | 9.20048 | 1292 ft | 2 kts | 227° |
| 2026-05-05 16:23 | 48.68900 | 9.19894 | 1298 ft | 14 kts | 220° |
| 2026-05-05 16:24 | 48.68816 | 9.19920 | 1298 ft | 12 kts | 122° |
| 2026-05-05 16:24 | 48.68838 | 9.20038 | 1294 ft | 13 kts | 65° |
| 2026-05-05 16:24 | 48.68895 | 9.20326 | 1286 ft | 15 kts | 73° |
| 2026-05-05 16:25 | 48.68925 | 9.20478 | 1282 ft | 15 kts | 73° |
| 2026-05-05 16:25 | 48.69003 | 9.20892 | 1270 ft | 26 kts | 74° |
| 2026-05-05 16:25 | 48.69055 | 9.21165 | 1264 ft | 28 kts | 74° |
| 2026-05-05 16:26 | 48.69161 | 9.21733 | 1246 ft | 28 kts | 74° |
| 2026-05-05 16:26 | 48.69261 | 9.22261 | 1230 ft | 24 kts | 73° |
| 2026-05-05 16:27 | 48.69307 | 9.22500 | 1223 ft | 23 kts | 73° |
| 2026-05-05 16:27 | 48.69350 | 9.22728 | 1217 ft | 22 kts | 74° |
| 2026-05-05 16:27 | 48.69392 | 9.22951 | 1211 ft | 22 kts | 73° |
| 2026-05-05 16:27 | 48.69433 | 9.23167 | 1206 ft | 21 kts | 74° |
| 2026-05-05 16:28 | 48.69472 | 9.23374 | 1202 ft | 20 kts | 74° |
| 2026-05-05 16:28 | 48.69510 | 9.23578 | 1198 ft | 20 kts | 74° |
| 2026-05-05 16:28 | 48.69547 | 9.23776 | 1194 ft | 19 kts | 74° |
| 2026-05-05 16:28 | 48.69583 | 9.23966 | 1191 ft | 19 kts | 74° |
| 2026-05-05 16:29 | 48.69610 | 9.24142 | 1187 ft | 15 kts | 95° |
| 2026-05-05 16:29 | 48.69585 | 9.24224 | 1186 ft | 1 kts | 117° |
| 2026-05-05 16:29 | 48.69585 | 9.24225 | 1186 ft | 0 kts | 117° |
| 2026-05-05 16:31 | 48.69584 | 9.24229 | 1186 ft | 2 kts | 117° |
| 2026-05-05 16:32 | 48.69568 | 9.24271 | 1185 ft | 7 kts | 124° |
| 2026-05-05 16:32 | 48.69522 | 9.24307 | 1185 ft | 6 kts | 162° |
| 2026-05-05 16:32 | 48.69493 | 9.24321 | 1185 ft | 4 kts | 163° |
| 2026-05-05 16:32 | 48.69466 | 9.24329 | 1184 ft | 4 kts | 172° |
| 2026-05-05 16:33 | 48.69438 | 9.24336 | 1184 ft | 4 kts | 172° |
| 2026-05-05 16:33 | 48.69411 | 9.24338 | 1184 ft | 4 kts | 186° |
| 2026-05-05 16:33 | 48.69390 | 9.24314 | 1185 ft | 4 kts | 232° |
| 2026-05-05 16:33 | 48.69384 | 9.24292 | 1185 ft | 0 kts | 255° |
| 2026-05-05 16:34 | 48.69382 | 9.24277 | 1185 ft | 6 kts | 255° |
| 2026-05-05 16:34 | 48.69319 | 9.23948 | 1191 ft | 66 kts | 254° |
| 2026-05-05 16:35 | 48.69134 | 9.22975 | 1214 ft | 127 kts | 254° |
| 2026-05-05 16:35 | 48.68845 | 9.21439 | 1311 ft | 171 kts | 255° |
| 2026-05-05 16:35 | 48.68530 | 9.19669 | 1962 ft | 176 kts | 256° |
| 2026-05-05 16:35 | 48.68425 | 9.19071 | 2242 ft | 174 kts | 255° |